sensor_id;sensor_type;location;lat;lon;timestamp;P1;durP1;ratioP1;P2;durP2;ratioP2
20322;SDS011;10319;52.206;20.996;2024-03-02T00:02:14;27.37;;;12.47;;
20322;SDS011;10319;52.206;20.996;2024-03-02T00:04:39;28.63;;;12.43;;
20322;SDS011;10319;52.206;20.996;2024-03-02T00:07:06;29.30;;;12.87;;
20322;SDS011;10319;52.206;20.996;2024-03-02T00:09:31;30.27;;;12.83;;
20322;SDS011;10319;52.206;20.996;2024-03-02T00:12:00;30.73;;;13.60;;
20322;SDS011;10319;52.206;20.996;2024-03-02T00:14:25;29.93;;;13.37;;
20322;SDS011;10319;52.206;20.996;2024-03-02T00:16:54;29.87;;;12.73;;
20322;SDS011;10319;52.206;20.996;2024-03-02T00:19:20;30.50;;;14.13;;
20322;SDS011;10319;52.206;20.996;2024-03-02T00:21:45;30.13;;;12.53;;
20322;SDS011;10319;52.206;20.996;2024-03-02T00:26:45;31.53;;;12.90;;
20322;SDS011;10319;52.206;20.996;2024-03-02T00:29:10;30.67;;;12.33;;
20322;SDS011;10319;52.206;20.996;2024-03-02T00:31:39;28.13;;;11.97;;
20322;SDS011;10319;52.206;20.996;2024-03-02T00:34:04;29.60;;;12.30;;
20322;SDS011;10319;52.206;20.996;2024-03-02T00:36:30;29.53;;;12.43;;
20322;SDS011;10319;52.206;20.996;2024-03-02T00:38:55;26.33;;;11.50;;
20322;SDS011;10319;52.206;20.996;2024-03-02T00:41:25;26.87;;;12.17;;
20322;SDS011;10319;52.206;20.996;2024-03-02T00:46:23;31.37;;;12.90;;
20322;SDS011;10319;52.206;20.996;2024-03-02T00:48:59;26.97;;;11.67;;
20322;SDS011;10319;52.206;20.996;2024-03-02T00:51:25;26.60;;;11.77;;
20322;SDS011;10319;52.206;20.996;2024-03-02T00:53:51;30.13;;;13.33;;
20322;SDS011;10319;52.206;20.996;2024-03-02T00:56:17;28.30;;;12.33;;
20322;SDS011;10319;52.206;20.996;2024-03-02T00:58:43;29.90;;;13.00;;
20322;SDS011;10319;52.206;20.996;2024-03-02T01:01:08;31.47;;;14.23;;
20322;SDS011;10319;52.206;20.996;2024-03-02T01:03:34;28.57;;;12.17;;
20322;SDS011;10319;52.206;20.996;2024-03-02T01:06:00;26.53;;;12.07;;
20322;SDS011;10319;52.206;20.996;2024-03-02T01:08:25;29.63;;;12.23;;
20322;SDS011;10319;52.206;20.996;2024-03-02T01:10:51;29.37;;;13.60;;
20322;SDS011;10319;52.206;20.996;2024-03-02T01:13:16;28.60;;;12.57;;
20322;SDS011;10319;52.206;20.996;2024-03-02T01:15:41;29.33;;;12.10;;
20322;SDS011;10319;52.206;20.996;2024-03-02T01:18:06;27.67;;;11.33;;
20322;SDS011;10319;52.206;20.996;2024-03-02T01:20:32;26.23;;;11.10;;
20322;SDS011;10319;52.206;20.996;2024-03-02T01:22:58;29.27;;;13.53;;
20322;SDS011;10319;52.206;20.996;2024-03-02T01:25:23;29.83;;;13.13;;
20322;SDS011;10319;52.206;20.996;2024-03-02T01:27:48;29.13;;;12.00;;
20322;SDS011;10319;52.206;20.996;2024-03-02T01:30:13;29.97;;;13.47;;
20322;SDS011;10319;52.206;20.996;2024-03-02T01:32:39;29.20;;;12.60;;
20322;SDS011;10319;52.206;20.996;2024-03-02T01:35:04;26.33;;;12.00;;
20322;SDS011;10319;52.206;20.996;2024-03-02T01:37:30;26.90;;;11.80;;
20322;SDS011;10319;52.206;20.996;2024-03-02T01:39:55;26.53;;;12.10;;
20322;SDS011;10319;52.206;20.996;2024-03-02T01:42:20;27.37;;;12.30;;
20322;SDS011;10319;52.206;20.996;2024-03-02T01:44:45;29.53;;;12.90;;
20322;SDS011;10319;52.206;20.996;2024-03-02T01:47:11;27.17;;;12.43;;
20322;SDS011;10319;52.206;20.996;2024-03-02T01:49:36;27.63;;;11.73;;
20322;SDS011;10319;52.206;20.996;2024-03-02T01:52:03;28.03;;;12.90;;
20322;SDS011;10319;52.206;20.996;2024-03-02T01:54:29;28.23;;;13.23;;
20322;SDS011;10319;52.206;20.996;2024-03-02T01:56:54;28.67;;;12.40;;
20322;SDS011;10319;52.206;20.996;2024-03-02T01:59:19;26.70;;;12.80;;
20322;SDS011;10319;52.206;20.996;2024-03-02T02:01:44;28.10;;;13.37;;
20322;SDS011;10319;52.206;20.996;2024-03-02T02:04:09;26.60;;;11.67;;
20322;SDS011;10319;52.206;20.996;2024-03-02T02:06:35;29.77;;;13.20;;
20322;SDS011;10319;52.206;20.996;2024-03-02T02:09:00;28.47;;;12.47;;
20322;SDS011;10319;52.206;20.996;2024-03-02T02:11:25;31.17;;;12.40;;
20322;SDS011;10319;52.206;20.996;2024-03-02T02:13:51;26.17;;;11.70;;
20322;SDS011;10319;52.206;20.996;2024-03-02T02:16:16;27.77;;;12.23;;
20322;SDS011;10319;52.206;20.996;2024-03-02T02:18:41;26.77;;;11.17;;
20322;SDS011;10319;52.206;20.996;2024-03-02T02:21:07;28.30;;;11.30;;
20322;SDS011;10319;52.206;20.996;2024-03-02T02:23:32;26.33;;;12.03;;
20322;SDS011;10319;52.206;20.996;2024-03-02T02:25:58;25.90;;;12.30;;
20322;SDS011;10319;52.206;20.996;2024-03-02T02:28:23;25.07;;;11.43;;
20322;SDS011;10319;52.206;20.996;2024-03-02T02:30:48;28.97;;;13.10;;
20322;SDS011;10319;52.206;20.996;2024-03-02T02:33:13;24.57;;;11.37;;
20322;SDS011;10319;52.206;20.996;2024-03-02T02:35:39;28.47;;;12.07;;
20322;SDS011;10319;52.206;20.996;2024-03-02T02:38:04;28.50;;;12.60;;
20322;SDS011;10319;52.206;20.996;2024-03-02T02:40:29;30.03;;;12.93;;
20322;SDS011;10319;52.206;20.996;2024-03-02T02:42:55;27.73;;;12.27;;
20322;SDS011;10319;52.206;20.996;2024-03-02T02:45:21;30.27;;;12.50;;
20322;SDS011;10319;52.206;20.996;2024-03-02T02:47:46;28.50;;;11.97;;
20322;SDS011;10319;52.206;20.996;2024-03-02T02:50:11;25.47;;;11.17;;
20322;SDS011;10319;52.206;20.996;2024-03-02T02:52:38;24.57;;;11.10;;
20322;SDS011;10319;52.206;20.996;2024-03-02T02:55:05;23.97;;;10.80;;
20322;SDS011;10319;52.206;20.996;2024-03-02T02:57:34;27.83;;;12.00;;
20322;SDS011;10319;52.206;20.996;2024-03-02T03:00:22;25.27;;;11.10;;
20322;SDS011;10319;52.206;20.996;2024-03-02T03:02:48;25.20;;;11.33;;
20322;SDS011;10319;52.206;20.996;2024-03-02T03:05:14;27.73;;;11.60;;
20322;SDS011;10319;52.206;20.996;2024-03-02T03:07:39;27.03;;;12.00;;
20322;SDS011;10319;52.206;20.996;2024-03-02T03:10:05;28.17;;;12.87;;
20322;SDS011;10319;52.206;20.996;2024-03-02T03:12:31;25.83;;;10.57;;
20322;SDS011;10319;52.206;20.996;2024-03-02T03:14:57;27.47;;;11.73;;
20322;SDS011;10319;52.206;20.996;2024-03-02T03:17:22;27.83;;;12.27;;
20322;SDS011;10319;52.206;20.996;2024-03-02T03:19:48;25.47;;;12.17;;
20322;SDS011;10319;52.206;20.996;2024-03-02T03:22:13;27.17;;;12.07;;
20322;SDS011;10319;52.206;20.996;2024-03-02T03:24:38;26.07;;;11.50;;
20322;SDS011;10319;52.206;20.996;2024-03-02T03:27:04;28.03;;;12.33;;
20322;SDS011;10319;52.206;20.996;2024-03-02T03:29:29;24.97;;;11.53;;
20322;SDS011;10319;52.206;20.996;2024-03-02T03:31:54;27.73;;;11.67;;
20322;SDS011;10319;52.206;20.996;2024-03-02T03:34:19;25.83;;;12.87;;
20322;SDS011;10319;52.206;20.996;2024-03-02T03:36:45;25.40;;;11.20;;
20322;SDS011;10319;52.206;20.996;2024-03-02T03:39:10;24.37;;;10.57;;
20322;SDS011;10319;52.206;20.996;2024-03-02T03:41:35;26.53;;;11.20;;
20322;SDS011;10319;52.206;20.996;2024-03-02T03:44:01;24.40;;;10.50;;
20322;SDS011;10319;52.206;20.996;2024-03-02T03:46:26;25.30;;;11.07;;
20322;SDS011;10319;52.206;20.996;2024-03-02T03:48:51;23.30;;;10.70;;
20322;SDS011;10319;52.206;20.996;2024-03-02T03:51:16;24.90;;;11.50;;
20322;SDS011;10319;52.206;20.996;2024-03-02T03:53:41;26.30;;;11.37;;
20322;SDS011;10319;52.206;20.996;2024-03-02T03:56:07;22.63;;;9.60;;
20322;SDS011;10319;52.206;20.996;2024-03-02T03:58:32;27.53;;;11.63;;
20322;SDS011;10319;52.206;20.996;2024-03-02T04:00:57;26.63;;;12.00;;
20322;SDS011;10319;52.206;20.996;2024-03-02T04:03:23;26.03;;;10.87;;
20322;SDS011;10319;52.206;20.996;2024-03-02T04:05:48;26.43;;;11.57;;
20322;SDS011;10319;52.206;20.996;2024-03-02T04:08:13;27.30;;;11.13;;
20322;SDS011;10319;52.206;20.996;2024-03-02T04:10:38;27.20;;;11.13;;
20322;SDS011;10319;52.206;20.996;2024-03-02T04:13:05;27.23;;;12.33;;
20322;SDS011;10319;52.206;20.996;2024-03-02T04:15:30;23.60;;;10.63;;
20322;SDS011;10319;52.206;20.996;2024-03-02T04:17:55;28.13;;;12.40;;
20322;SDS011;10319;52.206;20.996;2024-03-02T04:20:20;30.00;;;13.17;;
20322;SDS011;10319;52.206;20.996;2024-03-02T04:22:46;26.37;;;12.33;;
20322;SDS011;10319;52.206;20.996;2024-03-02T04:25:11;26.27;;;11.63;;
20322;SDS011;10319;52.206;20.996;2024-03-02T04:27:36;25.83;;;11.27;;
20322;SDS011;10319;52.206;20.996;2024-03-02T04:30:02;24.93;;;11.60;;
20322;SDS011;10319;52.206;20.996;2024-03-02T04:32:27;27.17;;;11.67;;
20322;SDS011;10319;52.206;20.996;2024-03-02T04:34:52;25.37;;;11.67;;
20322;SDS011;10319;52.206;20.996;2024-03-02T04:37:18;25.37;;;11.50;;
20322;SDS011;10319;52.206;20.996;2024-03-02T04:39:43;26.37;;;11.30;;
20322;SDS011;10319;52.206;20.996;2024-03-02T04:42:09;25.50;;;11.73;;
20322;SDS011;10319;52.206;20.996;2024-03-02T04:44:34;27.40;;;12.17;;
20322;SDS011;10319;52.206;20.996;2024-03-02T04:46:59;27.63;;;11.47;;
20322;SDS011;10319;52.206;20.996;2024-03-02T04:49:24;26.67;;;11.10;;
20322;SDS011;10319;52.206;20.996;2024-03-02T04:51:50;25.70;;;11.30;;
20322;SDS011;10319;52.206;20.996;2024-03-02T04:54:15;29.60;;;12.37;;
20322;SDS011;10319;52.206;20.996;2024-03-02T04:56:40;26.03;;;11.90;;
20322;SDS011;10319;52.206;20.996;2024-03-02T04:59:09;26.20;;;11.73;;
20322;SDS011;10319;52.206;20.996;2024-03-02T05:01:34;25.77;;;11.07;;
20322;SDS011;10319;52.206;20.996;2024-03-02T05:04:00;27.53;;;10.77;;
20322;SDS011;10319;52.206;20.996;2024-03-02T05:06:25;26.23;;;11.03;;
20322;SDS011;10319;52.206;20.996;2024-03-02T05:08:50;25.20;;;11.67;;
20322;SDS011;10319;52.206;20.996;2024-03-02T05:11:15;24.83;;;11.03;;
20322;SDS011;10319;52.206;20.996;2024-03-02T05:14:15;23.53;;;10.00;;
20322;SDS011;10319;52.206;20.996;2024-03-02T05:16:40;26.00;;;11.63;;
20322;SDS011;10319;52.206;20.996;2024-03-02T05:19:06;26.27;;;10.97;;
20322;SDS011;10319;52.206;20.996;2024-03-02T05:21:32;26.20;;;10.77;;
20322;SDS011;10319;52.206;20.996;2024-03-02T05:23:57;25.50;;;10.57;;
20322;SDS011;10319;52.206;20.996;2024-03-02T05:26:22;24.70;;;11.20;;
20322;SDS011;10319;52.206;20.996;2024-03-02T05:28:48;24.83;;;9.90;;
20322;SDS011;10319;52.206;20.996;2024-03-02T05:31:16;25.03;;;10.30;;
20322;SDS011;10319;52.206;20.996;2024-03-02T05:33:42;27.30;;;10.87;;
20322;SDS011;10319;52.206;20.996;2024-03-02T05:36:07;28.77;;;12.47;;
20322;SDS011;10319;52.206;20.996;2024-03-02T05:38:34;26.27;;;11.13;;
20322;SDS011;10319;52.206;20.996;2024-03-02T05:40:59;25.67;;;11.40;;
20322;SDS011;10319;52.206;20.996;2024-03-02T05:43:25;27.27;;;11.73;;
20322;SDS011;10319;52.206;20.996;2024-03-02T05:45:50;25.83;;;11.53;;
20322;SDS011;10319;52.206;20.996;2024-03-02T05:48:15;30.27;;;11.27;;
20322;SDS011;10319;52.206;20.996;2024-03-02T05:50:40;26.10;;;11.30;;
20322;SDS011;10319;52.206;20.996;2024-03-02T05:53:05;25.93;;;10.93;;
20322;SDS011;10319;52.206;20.996;2024-03-02T05:55:31;24.33;;;10.27;;
20322;SDS011;10319;52.206;20.996;2024-03-02T05:57:56;23.30;;;9.27;;
20322;SDS011;10319;52.206;20.996;2024-03-02T06:00:30;23.53;;;9.67;;
20322;SDS011;10319;52.206;20.996;2024-03-02T06:02:56;28.60;;;12.00;;
20322;SDS011;10319;52.206;20.996;2024-03-02T06:05:21;27.93;;;11.97;;
20322;SDS011;10319;52.206;20.996;2024-03-02T06:07:46;28.93;;;12.33;;
20322;SDS011;10319;52.206;20.996;2024-03-02T06:10:12;26.00;;;11.37;;
20322;SDS011;10319;52.206;20.996;2024-03-02T06:12:37;24.80;;;9.87;;
20322;SDS011;10319;52.206;20.996;2024-03-02T06:15:02;26.50;;;10.93;;
20322;SDS011;10319;52.206;20.996;2024-03-02T06:17:29;27.07;;;11.73;;
20322;SDS011;10319;52.206;20.996;2024-03-02T06:19:54;26.47;;;11.33;;
20322;SDS011;10319;52.206;20.996;2024-03-02T06:22:19;26.17;;;10.93;;
20322;SDS011;10319;52.206;20.996;2024-03-02T06:24:44;27.63;;;11.30;;
20322;SDS011;10319;52.206;20.996;2024-03-02T06:27:09;24.67;;;10.70;;
20322;SDS011;10319;52.206;20.996;2024-03-02T06:29:35;28.40;;;12.23;;
20322;SDS011;10319;52.206;20.996;2024-03-02T06:32:00;25.17;;;10.60;;
20322;SDS011;10319;52.206;20.996;2024-03-02T06:34:25;27.57;;;11.17;;
20322;SDS011;10319;52.206;20.996;2024-03-02T06:36:50;26.10;;;10.97;;
20322;SDS011;10319;52.206;20.996;2024-03-02T06:39:16;24.17;;;10.27;;
20322;SDS011;10319;52.206;20.996;2024-03-02T06:41:41;23.73;;;9.80;;
20322;SDS011;10319;52.206;20.996;2024-03-02T06:44:07;26.33;;;10.23;;
20322;SDS011;10319;52.206;20.996;2024-03-02T06:46:33;23.10;;;10.17;;
20322;SDS011;10319;52.206;20.996;2024-03-02T06:48:58;25.90;;;10.43;;
20322;SDS011;10319;52.206;20.996;2024-03-02T06:51:23;26.63;;;11.10;;
20322;SDS011;10319;52.206;20.996;2024-03-02T06:53:48;26.10;;;10.63;;
20322;SDS011;10319;52.206;20.996;2024-03-02T06:56:13;24.97;;;10.87;;
20322;SDS011;10319;52.206;20.996;2024-03-02T06:58:39;24.60;;;10.20;;
20322;SDS011;10319;52.206;20.996;2024-03-02T07:01:04;26.33;;;10.77;;
20322;SDS011;10319;52.206;20.996;2024-03-02T07:03:30;22.67;;;9.57;;
20322;SDS011;10319;52.206;20.996;2024-03-02T07:05:55;23.97;;;10.00;;
20322;SDS011;10319;52.206;20.996;2024-03-02T07:08:20;27.83;;;10.37;;
20322;SDS011;10319;52.206;20.996;2024-03-02T07:10:45;26.77;;;10.47;;
20322;SDS011;10319;52.206;20.996;2024-03-02T07:13:12;24.87;;;9.67;;
20322;SDS011;10319;52.206;20.996;2024-03-02T07:15:38;23.17;;;9.67;;
20322;SDS011;10319;52.206;20.996;2024-03-02T07:18:21;21.77;;;8.87;;
20322;SDS011;10319;52.206;20.996;2024-03-02T07:20:47;23.23;;;9.53;;
20322;SDS011;10319;52.206;20.996;2024-03-02T07:23:14;26.43;;;10.23;;
20322;SDS011;10319;52.206;20.996;2024-03-02T07:25:39;25.90;;;10.07;;
20322;SDS011;10319;52.206;20.996;2024-03-02T07:28:04;24.90;;;10.10;;
20322;SDS011;10319;52.206;20.996;2024-03-02T07:30:30;25.27;;;10.10;;
20322;SDS011;10319;52.206;20.996;2024-03-02T07:32:55;24.10;;;9.87;;
20322;SDS011;10319;52.206;20.996;2024-03-02T07:35:21;23.57;;;9.87;;
20322;SDS011;10319;52.206;20.996;2024-03-02T07:37:47;22.80;;;8.93;;
20322;SDS011;10319;52.206;20.996;2024-03-02T07:40:12;23.83;;;9.67;;
20322;SDS011;10319;52.206;20.996;2024-03-02T07:42:38;22.70;;;9.20;;
20322;SDS011;10319;52.206;20.996;2024-03-02T07:45:04;23.73;;;8.90;;
20322;SDS011;10319;52.206;20.996;2024-03-02T07:47:30;20.27;;;7.37;;
20322;SDS011;10319;52.206;20.996;2024-03-02T07:49:55;21.23;;;8.43;;
20322;SDS011;10319;52.206;20.996;2024-03-02T07:52:20;23.50;;;9.50;;
20322;SDS011;10319;52.206;20.996;2024-03-02T07:54:45;26.70;;;10.13;;
20322;SDS011;10319;52.206;20.996;2024-03-02T07:57:10;25.57;;;10.03;;
20322;SDS011;10319;52.206;20.996;2024-03-02T07:59:36;26.03;;;10.17;;
20322;SDS011;10319;52.206;20.996;2024-03-02T08:02:01;25.27;;;10.53;;
20322;SDS011;10319;52.206;20.996;2024-03-02T08:04:27;25.57;;;9.67;;
20322;SDS011;10319;52.206;20.996;2024-03-02T08:06:52;25.83;;;10.00;;
20322;SDS011;10319;52.206;20.996;2024-03-02T08:09:17;27.43;;;10.40;;
20322;SDS011;10319;52.206;20.996;2024-03-02T08:11:42;23.13;;;9.17;;
20322;SDS011;10319;52.206;20.996;2024-03-02T08:14:08;25.83;;;9.90;;
20322;SDS011;10319;52.206;20.996;2024-03-02T08:16:33;24.63;;;9.87;;
20322;SDS011;10319;52.206;20.996;2024-03-02T08:18:59;25.20;;;8.90;;
20322;SDS011;10319;52.206;20.996;2024-03-02T08:21:24;24.63;;;10.13;;
20322;SDS011;10319;52.206;20.996;2024-03-02T08:23:50;23.77;;;9.10;;
20322;SDS011;10319;52.206;20.996;2024-03-02T08:26:15;26.57;;;10.47;;
20322;SDS011;10319;52.206;20.996;2024-03-02T08:28:40;25.83;;;10.43;;
20322;SDS011;10319;52.206;20.996;2024-03-02T08:31:06;23.43;;;8.47;;
20322;SDS011;10319;52.206;20.996;2024-03-02T08:33:31;26.07;;;9.13;;
20322;SDS011;10319;52.206;20.996;2024-03-02T08:35:57;24.87;;;10.07;;
20322;SDS011;10319;52.206;20.996;2024-03-02T08:38:22;24.90;;;9.30;;
20322;SDS011;10319;52.206;20.996;2024-03-02T08:40:47;22.57;;;8.90;;
20322;SDS011;10319;52.206;20.996;2024-03-02T08:43:14;26.23;;;9.30;;
20322;SDS011;10319;52.206;20.996;2024-03-02T08:45:39;27.33;;;10.40;;
20322;SDS011;10319;52.206;20.996;2024-03-02T08:48:06;27.07;;;10.23;;
20322;SDS011;10319;52.206;20.996;2024-03-02T08:50:31;24.67;;;9.50;;
20322;SDS011;10319;52.206;20.996;2024-03-02T08:52:57;24.27;;;9.17;;
20322;SDS011;10319;52.206;20.996;2024-03-02T08:55:22;26.33;;;9.33;;
20322;SDS011;10319;52.206;20.996;2024-03-02T08:57:47;23.70;;;8.93;;
20322;SDS011;10319;52.206;20.996;2024-03-02T09:00:15;26.37;;;8.93;;
20322;SDS011;10319;52.206;20.996;2024-03-02T09:02:43;25.03;;;9.27;;
20322;SDS011;10319;52.206;20.996;2024-03-02T09:05:08;22.57;;;9.13;;
20322;SDS011;10319;52.206;20.996;2024-03-02T09:07:33;22.67;;;9.20;;
20322;SDS011;10319;52.206;20.996;2024-03-02T09:09:59;24.03;;;9.43;;
20322;SDS011;10319;52.206;20.996;2024-03-02T09:12:24;23.27;;;9.23;;
20322;SDS011;10319;52.206;20.996;2024-03-02T09:14:49;20.67;;;7.87;;
20322;SDS011;10319;52.206;20.996;2024-03-02T09:17:14;18.73;;;7.17;;
20322;SDS011;10319;52.206;20.996;2024-03-02T09:19:40;23.33;;;7.87;;
20322;SDS011;10319;52.206;20.996;2024-03-02T09:22:05;26.80;;;10.20;;
20322;SDS011;10319;52.206;20.996;2024-03-02T09:24:31;25.57;;;10.00;;
20322;SDS011;10319;52.206;20.996;2024-03-02T09:26:56;24.37;;;9.90;;
20322;SDS011;10319;52.206;20.996;2024-03-02T09:29:21;23.40;;;9.10;;
20322;SDS011;10319;52.206;20.996;2024-03-02T09:31:46;23.70;;;9.20;;
20322;SDS011;10319;52.206;20.996;2024-03-02T09:34:12;23.27;;;9.20;;
20322;SDS011;10319;52.206;20.996;2024-03-02T09:36:37;26.73;;;9.80;;
20322;SDS011;10319;52.206;20.996;2024-03-02T09:39:02;26.07;;;9.60;;
20322;SDS011;10319;52.206;20.996;2024-03-02T09:41:28;25.67;;;9.43;;
20322;SDS011;10319;52.206;20.996;2024-03-02T09:43:54;22.97;;;8.10;;
20322;SDS011;10319;52.206;20.996;2024-03-02T09:46:20;28.03;;;9.73;;
20322;SDS011;10319;52.206;20.996;2024-03-02T09:48:45;25.57;;;9.60;;
20322;SDS011;10319;52.206;20.996;2024-03-02T09:51:11;25.30;;;9.80;;
20322;SDS011;10319;52.206;20.996;2024-03-02T09:53:36;25.17;;;10.10;;
20322;SDS011;10319;52.206;20.996;2024-03-02T09:56:02;24.10;;;9.40;;
20322;SDS011;10319;52.206;20.996;2024-03-02T09:58:27;23.57;;;8.83;;
20322;SDS011;10319;52.206;20.996;2024-03-02T10:00:52;27.27;;;10.50;;
20322;SDS011;10319;52.206;20.996;2024-03-02T10:03:18;23.70;;;8.97;;
20322;SDS011;10319;52.206;20.996;2024-03-02T10:05:43;25.87;;;9.60;;
20322;SDS011;10319;52.206;20.996;2024-03-02T10:08:09;26.33;;;10.27;;
20322;SDS011;10319;52.206;20.996;2024-03-02T10:10:35;23.57;;;9.23;;
20322;SDS011;10319;52.206;20.996;2024-03-02T10:13:04;23.57;;;9.60;;
20322;SDS011;10319;52.206;20.996;2024-03-02T10:15:30;23.03;;;8.87;;
20322;SDS011;10319;52.206;20.996;2024-03-02T10:17:55;25.97;;;9.97;;
20322;SDS011;10319;52.206;20.996;2024-03-02T10:20:21;25.50;;;9.63;;
20322;SDS011;10319;52.206;20.996;2024-03-02T10:22:48;25.90;;;10.20;;
20322;SDS011;10319;52.206;20.996;2024-03-02T10:25:28;24.87;;;9.90;;
20322;SDS011;10319;52.206;20.996;2024-03-02T10:27:53;25.93;;;10.30;;
20322;SDS011;10319;52.206;20.996;2024-03-02T10:30:21;23.07;;;9.17;;
20322;SDS011;10319;52.206;20.996;2024-03-02T10:32:47;28.23;;;10.53;;
20322;SDS011;10319;52.206;20.996;2024-03-02T10:35:13;24.20;;;9.80;;
20322;SDS011;10319;52.206;20.996;2024-03-02T10:37:39;23.67;;;10.00;;
20322;SDS011;10319;52.206;20.996;2024-03-02T10:40:05;24.03;;;9.00;;
20322;SDS011;10319;52.206;20.996;2024-03-02T10:42:31;26.37;;;10.30;;
20322;SDS011;10319;52.206;20.996;2024-03-02T10:44:56;25.17;;;9.33;;
20322;SDS011;10319;52.206;20.996;2024-03-02T10:47:22;23.73;;;9.63;;
20322;SDS011;10319;52.206;20.996;2024-03-02T10:49:48;23.03;;;8.97;;
20322;SDS011;10319;52.206;20.996;2024-03-02T10:52:14;25.87;;;9.87;;
20322;SDS011;10319;52.206;20.996;2024-03-02T10:54:40;24.57;;;9.83;;
20322;SDS011;10319;52.206;20.996;2024-03-02T10:57:05;22.77;;;8.97;;
20322;SDS011;10319;52.206;20.996;2024-03-02T10:59:35;23.93;;;9.00;;
20322;SDS011;10319;52.206;20.996;2024-03-02T11:02:02;25.83;;;10.47;;
20322;SDS011;10319;52.206;20.996;2024-03-02T11:04:28;26.73;;;10.87;;
20322;SDS011;10319;52.206;20.996;2024-03-02T11:06:55;22.07;;;9.20;;
20322;SDS011;10319;52.206;20.996;2024-03-02T11:09:22;27.10;;;9.73;;
20322;SDS011;10319;52.206;20.996;2024-03-02T11:11:54;24.70;;;9.97;;
20322;SDS011;10319;52.206;20.996;2024-03-02T11:14:21;22.17;;;8.90;;
20322;SDS011;10319;52.206;20.996;2024-03-02T11:16:48;22.07;;;9.03;;
20322;SDS011;10319;52.206;20.996;2024-03-02T11:19:14;21.83;;;7.97;;
20322;SDS011;10319;52.206;20.996;2024-03-02T11:21:40;21.37;;;7.53;;
20322;SDS011;10319;52.206;20.996;2024-03-02T11:26:46;26.27;;;10.90;;
20322;SDS011;10319;52.206;20.996;2024-03-02T11:29:33;25.60;;;10.23;;
20322;SDS011;10319;52.206;20.996;2024-03-02T11:31:59;25.97;;;11.40;;
20322;SDS011;10319;52.206;20.996;2024-03-02T11:34:44;23.87;;;9.67;;
20322;SDS011;10319;52.206;20.996;2024-03-02T11:37:13;23.77;;;10.27;;
20322;SDS011;10319;52.206;20.996;2024-03-02T11:39:39;29.73;;;11.70;;
20322;SDS011;10319;52.206;20.996;2024-03-02T11:42:07;29.07;;;12.37;;
20322;SDS011;10319;52.206;20.996;2024-03-02T11:44:36;25.37;;;11.33;;
20322;SDS011;10319;52.206;20.996;2024-03-02T11:47:02;28.67;;;12.40;;
20322;SDS011;10319;52.206;20.996;2024-03-02T11:52:02;31.17;;;12.67;;
20322;SDS011;10319;52.206;20.996;2024-03-02T11:54:27;27.87;;;12.90;;
20322;SDS011;10319;52.206;20.996;2024-03-02T11:56:55;33.73;;;14.57;;
20322;SDS011;10319;52.206;20.996;2024-03-02T11:59:20;33.57;;;14.70;;
20322;SDS011;10319;52.206;20.996;2024-03-02T12:01:46;32.13;;;13.90;;
20322;SDS011;10319;52.206;20.996;2024-03-02T12:04:12;31.50;;;13.60;;
20322;SDS011;10319;52.206;20.996;2024-03-02T12:06:38;26.77;;;12.90;;
20322;SDS011;10319;52.206;20.996;2024-03-02T12:09:03;31.60;;;14.37;;
20322;SDS011;10319;52.206;20.996;2024-03-02T12:11:28;32.17;;;14.57;;
20322;SDS011;10319;52.206;20.996;2024-03-02T12:13:54;31.40;;;14.07;;
20322;SDS011;10319;52.206;20.996;2024-03-02T12:16:24;27.43;;;12.27;;
20322;SDS011;10319;52.206;20.996;2024-03-02T12:18:49;28.37;;;11.40;;
20322;SDS011;10319;52.206;20.996;2024-03-02T12:21:15;26.63;;;12.13;;
20322;SDS011;10319;52.206;20.996;2024-03-02T12:23:40;27.33;;;12.47;;
20322;SDS011;10319;52.206;20.996;2024-03-02T12:26:05;31.20;;;14.33;;
20322;SDS011;10319;52.206;20.996;2024-03-02T12:28:31;29.90;;;12.27;;
20322;SDS011;10319;52.206;20.996;2024-03-02T12:30:57;32.33;;;14.70;;
20322;SDS011;10319;52.206;20.996;2024-03-02T12:33:22;29.27;;;13.07;;
20322;SDS011;10319;52.206;20.996;2024-03-02T12:35:49;25.83;;;12.03;;
20322;SDS011;10319;52.206;20.996;2024-03-02T12:38:14;31.30;;;14.13;;
20322;SDS011;10319;52.206;20.996;2024-03-02T12:40:39;29.10;;;12.90;;
20322;SDS011;10319;52.206;20.996;2024-03-02T12:43:05;27.43;;;13.10;;
20322;SDS011;10319;52.206;20.996;2024-03-02T12:45:30;27.00;;;12.83;;
20322;SDS011;10319;52.206;20.996;2024-03-02T12:47:55;32.20;;;14.87;;
20322;SDS011;10319;52.206;20.996;2024-03-02T12:50:21;32.03;;;13.60;;
20322;SDS011;10319;52.206;20.996;2024-03-02T12:52:53;27.97;;;13.07;;
20322;SDS011;10319;52.206;20.996;2024-03-02T12:55:19;29.37;;;13.33;;
20322;SDS011;10319;52.206;20.996;2024-03-02T12:57:44;29.53;;;14.00;;
20322;SDS011;10319;52.206;20.996;2024-03-02T13:00:10;25.43;;;12.37;;
20322;SDS011;10319;52.206;20.996;2024-03-02T13:02:36;28.07;;;12.77;;
20322;SDS011;10319;52.206;20.996;2024-03-02T13:05:04;25.17;;;11.57;;
20322;SDS011;10319;52.206;20.996;2024-03-02T13:07:31;25.70;;;12.27;;
20322;SDS011;10319;52.206;20.996;2024-03-02T13:09:56;24.03;;;11.93;;
20322;SDS011;10319;52.206;20.996;2024-03-02T13:12:22;25.30;;;12.57;;
20322;SDS011;10319;52.206;20.996;2024-03-02T13:14:48;29.90;;;13.37;;
20322;SDS011;10319;52.206;20.996;2024-03-02T13:17:13;29.10;;;13.07;;
20322;SDS011;10319;52.206;20.996;2024-03-02T13:19:43;29.87;;;13.23;;
20322;SDS011;10319;52.206;20.996;2024-03-02T13:22:08;28.23;;;13.33;;
20322;SDS011;10319;52.206;20.996;2024-03-02T13:24:33;23.70;;;11.43;;
20322;SDS011;10319;52.206;20.996;2024-03-02T13:26:59;25.83;;;11.13;;
20322;SDS011;10319;52.206;20.996;2024-03-02T13:29:25;24.73;;;11.70;;
20322;SDS011;10319;52.206;20.996;2024-03-02T13:31:50;25.60;;;11.90;;
20322;SDS011;10319;52.206;20.996;2024-03-02T13:34:16;27.30;;;12.60;;
20322;SDS011;10319;52.206;20.996;2024-03-02T13:36:41;25.00;;;11.60;;
20322;SDS011;10319;52.206;20.996;2024-03-02T13:39:06;26.93;;;13.23;;
20322;SDS011;10319;52.206;20.996;2024-03-02T13:41:35;28.80;;;13.30;;
20322;SDS011;10319;52.206;20.996;2024-03-02T13:44:00;31.87;;;14.33;;
20322;SDS011;10319;52.206;20.996;2024-03-02T13:46:26;29.13;;;13.80;;
20322;SDS011;10319;52.206;20.996;2024-03-02T13:48:51;29.93;;;14.50;;
20322;SDS011;10319;52.206;20.996;2024-03-02T13:51:17;28.90;;;13.77;;
20322;SDS011;10319;52.206;20.996;2024-03-02T13:53:42;26.63;;;13.40;;
20322;SDS011;10319;52.206;20.996;2024-03-02T13:56:08;25.07;;;12.83;;
20322;SDS011;10319;52.206;20.996;2024-03-02T13:58:33;29.07;;;14.80;;
20322;SDS011;10319;52.206;20.996;2024-03-02T14:00:58;27.10;;;12.97;;
20322;SDS011;10319;52.206;20.996;2024-03-02T14:03:23;27.33;;;13.30;;
20322;SDS011;10319;52.206;20.996;2024-03-02T14:05:49;25.93;;;11.87;;
20322;SDS011;10319;52.206;20.996;2024-03-02T14:08:15;27.60;;;12.40;;
20322;SDS011;10319;52.206;20.996;2024-03-02T14:10:40;24.87;;;11.67;;
20322;SDS011;10319;52.206;20.996;2024-03-02T14:13:07;26.97;;;12.63;;
20322;SDS011;10319;52.206;20.996;2024-03-02T14:15:32;28.30;;;13.87;;